sensor_id;sensor_type;location;lat;lon;timestamp;P1;durP1;ratioP1;P2;durP2;ratioP2
5483;SDS011;2764;48.794;8.326;2023-01-08T00:00:10;4.30;;;3.90;;
5483;SDS011;2764;48.794;8.326;2023-01-08T00:01:12;4.65;;;3.70;;
5483;SDS011;2764;48.794;8.326;2023-01-08T00:02:14;4.60;;;3.90;;
5483;SDS011;2764;48.794;8.326;2023-01-08T00:03:16;4.55;;;3.65;;
5483;SDS011;2764;48.794;8.326;2023-01-08T00:04:18;5.30;;;3.95;;
5483;SDS011;2764;48.794;8.326;2023-01-08T00:05:19;5.50;;;4.10;;
5483;SDS011;2764;48.794;8.326;2023-01-08T00:06:21;4.75;;;4.25;;
5483;SDS011;2764;48.794;8.326;2023-01-08T00:07:23;6.03;;;4.80;;
5483;SDS011;2764;48.794;8.326;2023-01-08T00:08:25;4.10;;;3.80;;
5483;SDS011;2764;48.794;8.326;2023-01-08T00:09:27;6.72;;;3.70;;
5483;SDS011;2764;48.794;8.326;2023-01-08T00:10:29;3.97;;;3.58;;
5483;SDS011;2764;48.794;8.326;2023-01-08T00:11:31;4.05;;;3.60;;
5483;SDS011;2764;48.794;8.326;2023-01-08T00:12:33;6.43;;;4.05;;
5483;SDS011;2764;48.794;8.326;2023-01-08T00:13:35;5.15;;;4.07;;
5483;SDS011;2764;48.794;8.326;2023-01-08T00:14:37;3.92;;;3.63;;
5483;SDS011;2764;48.794;8.326;2023-01-08T00:15:39;3.90;;;3.60;;
5483;SDS011;2764;48.794;8.326;2023-01-08T00:16:40;6.10;;;3.75;;
5483;SDS011;2764;48.794;8.326;2023-01-08T00:17:42;4.00;;;3.60;;
5483;SDS011;2764;48.794;8.326;2023-01-08T00:18:44;4.45;;;3.70;;
5483;SDS011;2764;48.794;8.326;2023-01-08T00:19:47;4.00;;;3.70;;
5483;SDS011;2764;48.794;8.326;2023-01-08T00:20:48;3.90;;;3.40;;
5483;SDS011;2764;48.794;8.326;2023-01-08T00:21:50;3.13;;;2.80;;
5483;SDS011;2764;48.794;8.326;2023-01-08T00:22:52;4.93;;;3.42;;
5483;SDS011;2764;48.794;8.326;2023-01-08T00:23:54;3.13;;;2.88;;
5483;SDS011;2764;48.794;8.326;2023-01-08T00:24:56;5.47;;;3.00;;
5483;SDS011;2764;48.794;8.326;2023-01-08T00:26:01;5.20;;;3.00;;
5483;SDS011;2764;48.794;8.326;2023-01-08T00:27:07;2.88;;;2.67;;
5483;SDS011;2764;48.794;8.326;2023-01-08T00:28:09;4.05;;;2.75;;
5483;SDS011;2764;48.794;8.326;2023-01-08T00:29:11;2.57;;;2.40;;
5483;SDS011;2764;48.794;8.326;2023-01-08T00:30:12;3.50;;;3.15;;
5483;SDS011;2764;48.794;8.326;2023-01-08T00:31:14;2.60;;;2.13;;
5483;SDS011;2764;48.794;8.326;2023-01-08T00:32:16;3.90;;;3.53;;
5483;SDS011;2764;48.794;8.326;2023-01-08T00:33:18;2.45;;;2.35;;
5483;SDS011;2764;48.794;8.326;2023-01-08T00:34:19;3.40;;;2.60;;
5483;SDS011;2764;48.794;8.326;2023-01-08T00:35:21;4.10;;;3.13;;
5483;SDS011;2764;48.794;8.326;2023-01-08T00:36:23;2.95;;;2.70;;
5483;SDS011;2764;48.794;8.326;2023-01-08T00:37:24;5.18;;;2.63;;
5483;SDS011;2764;48.794;8.326;2023-01-08T00:38:27;2.75;;;2.55;;
5483;SDS011;2764;48.794;8.326;2023-01-08T00:39:30;5.10;;;2.60;;
5483;SDS011;2764;48.794;8.326;2023-01-08T00:40:32;5.20;;;2.30;;
5483;SDS011;2764;48.794;8.326;2023-01-08T00:41:34;2.90;;;2.70;;
5483;SDS011;2764;48.794;8.326;2023-01-08T00:42:36;2.70;;;2.50;;
5483;SDS011;2764;48.794;8.326;2023-01-08T00:43:38;4.65;;;2.95;;
5483;SDS011;2764;48.794;8.326;2023-01-08T00:44:40;2.10;;;2.03;;
5483;SDS011;2764;48.794;8.326;2023-01-08T00:45:42;3.00;;;2.80;;
5483;SDS011;2764;48.794;8.326;2023-01-08T00:46:43;2.20;;;2.10;;
5483;SDS011;2764;48.794;8.326;2023-01-08T00:47:45;5.28;;;2.35;;
5483;SDS011;2764;48.794;8.326;2023-01-08T00:48:47;2.85;;;2.58;;
5483;SDS011;2764;48.794;8.326;2023-01-08T00:49:48;2.90;;;2.70;;
5483;SDS011;2764;48.794;8.326;2023-01-08T00:50:51;5.23;;;2.60;;
5483;SDS011;2764;48.794;8.326;2023-01-08T00:51:54;2.40;;;2.30;;
5483;SDS011;2764;48.794;8.326;2023-01-08T00:52:55;2.97;;;2.77;;
5483;SDS011;2764;48.794;8.326;2023-01-08T00:53:57;2.33;;;2.22;;
5483;SDS011;2764;48.794;8.326;2023-01-08T00:54:59;3.73;;;2.40;;
5483;SDS011;2764;48.794;8.326;2023-01-08T00:56:05;2.85;;;2.65;;
5483;SDS011;2764;48.794;8.326;2023-01-08T00:57:09;3.42;;;3.13;;
5483;SDS011;2764;48.794;8.326;2023-01-08T00:58:10;3.13;;;2.70;;
5483;SDS011;2764;48.794;8.326;2023-01-08T00:59:12;3.17;;;3.00;;
5483;SDS011;2764;48.794;8.326;2023-01-08T01:00:14;2.78;;;2.58;;
5483;SDS011;2764;48.794;8.326;2023-01-08T01:01:17;3.70;;;2.27;;
5483;SDS011;2764;48.794;8.326;2023-01-08T01:02:19;2.72;;;2.53;;
5483;SDS011;2764;48.794;8.326;2023-01-08T01:03:21;2.22;;;2.05;;
5483;SDS011;2764;48.794;8.326;2023-01-08T01:04:24;4.05;;;2.80;;
5483;SDS011;2764;48.794;8.326;2023-01-08T01:05:26;4.30;;;2.60;;
5483;SDS011;2764;48.794;8.326;2023-01-08T01:06:28;3.20;;;2.70;;
5483;SDS011;2764;48.794;8.326;2023-01-08T01:07:31;2.88;;;2.67;;
5483;SDS011;2764;48.794;8.326;2023-01-08T01:08:52;2.70;;;2.60;;
5483;SDS011;2764;48.794;8.326;2023-01-08T01:10:03;5.00;;;3.15;;
5483;SDS011;2764;48.794;8.326;2023-01-08T01:11:20;2.83;;;2.63;;
5483;SDS011;2764;48.794;8.326;2023-01-08T01:12:25;3.50;;;2.97;;
5483;SDS011;2764;48.794;8.326;2023-01-08T01:13:30;3.10;;;2.85;;
5483;SDS011;2764;48.794;8.326;2023-01-08T01:14:36;3.60;;;3.15;;
5483;SDS011;2764;48.794;8.326;2023-01-08T01:15:38;4.18;;;2.88;;
5483;SDS011;2764;48.794;8.326;2023-01-08T01:16:44;3.40;;;3.20;;
5483;SDS011;2764;48.794;8.326;2023-01-08T01:17:48;3.45;;;2.78;;
5483;SDS011;2764;48.794;8.326;2023-01-08T01:18:50;5.45;;;3.15;;
5483;SDS011;2764;48.794;8.326;2023-01-08T01:19:52;2.80;;;2.65;;
5483;SDS011;2764;48.794;8.326;2023-01-08T01:20:54;2.63;;;2.53;;
5483;SDS011;2764;48.794;8.326;2023-01-08T01:21:55;9.55;;;2.65;;
5483;SDS011;2764;48.794;8.326;2023-01-08T01:22:57;3.55;;;3.25;;
5483;SDS011;2764;48.794;8.326;2023-01-08T01:24:00;3.05;;;2.80;;
5483;SDS011;2764;48.794;8.326;2023-01-08T01:25:06;2.92;;;2.70;;
5483;SDS011;2764;48.794;8.326;2023-01-08T01:26:15;2.72;;;2.53;;
5483;SDS011;2764;48.794;8.326;2023-01-08T01:27:18;2.70;;;2.60;;
5483;SDS011;2764;48.794;8.326;2023-01-08T01:28:20;3.97;;;2.78;;
5483;SDS011;2764;48.794;8.326;2023-01-08T01:29:22;5.10;;;2.95;;
5483;SDS011;2764;48.794;8.326;2023-01-08T01:30:24;6.22;;;3.08;;
5483;SDS011;2764;48.794;8.326;2023-01-08T01:31:26;3.20;;;2.83;;
5483;SDS011;2764;48.794;8.326;2023-01-08T01:32:30;4.22;;;3.83;;
5483;SDS011;2764;48.794;8.326;2023-01-08T01:33:33;4.72;;;2.72;;
5483;SDS011;2764;48.794;8.326;2023-01-08T01:34:35;6.53;;;2.80;;
5483;SDS011;2764;48.794;8.326;2023-01-08T01:35:37;2.90;;;2.65;;
5483;SDS011;2764;48.794;8.326;2023-01-08T01:36:38;4.80;;;2.65;;
5483;SDS011;2764;48.794;8.326;2023-01-08T01:37:40;6.30;;;2.67;;
5483;SDS011;2764;48.794;8.326;2023-01-08T01:38:42;5.05;;;2.05;;
5483;SDS011;2764;48.794;8.326;2023-01-08T01:39:45;2.42;;;2.22;;
5483;SDS011;2764;48.794;8.326;2023-01-08T01:40:47;5.15;;;2.75;;
5483;SDS011;2764;48.794;8.326;2023-01-08T01:41:49;2.60;;;2.42;;
5483;SDS011;2764;48.794;8.326;2023-01-08T01:42:50;2.90;;;2.60;;
5483;SDS011;2764;48.794;8.326;2023-01-08T01:43:52;2.67;;;2.58;;
5483;SDS011;2764;48.794;8.326;2023-01-08T01:44:56;2.70;;;2.50;;
5483;SDS011;2764;48.794;8.326;2023-01-08T01:45:58;2.60;;;2.40;;
5483;SDS011;2764;48.794;8.326;2023-01-08T01:47:00;2.70;;;2.60;;
5483;SDS011;2764;48.794;8.326;2023-01-08T01:48:08;4.25;;;3.17;;
5483;SDS011;2764;48.794;8.326;2023-01-08T01:49:16;3.60;;;2.85;;
5483;SDS011;2764;48.794;8.326;2023-01-08T01:50:29;2.58;;;2.38;;
5483;SDS011;2764;48.794;8.326;2023-01-08T01:52:01;2.67;;;2.58;;
5483;SDS011;2764;48.794;8.326;2023-01-08T01:53:08;3.22;;;2.92;;
5483;SDS011;2764;48.794;8.326;2023-01-08T01:54:10;4.47;;;2.70;;
5483;SDS011;2764;48.794;8.326;2023-01-08T01:55:13;2.58;;;2.40;;
5483;SDS011;2764;48.794;8.326;2023-01-08T01:56:16;2.50;;;2.30;;
5483;SDS011;2764;48.794;8.326;2023-01-08T01:57:18;2.80;;;2.60;;
5483;SDS011;2764;48.794;8.326;2023-01-08T01:58:21;3.10;;;2.90;;
5483;SDS011;2764;48.794;8.326;2023-01-08T01:59:24;5.10;;;2.85;;
5483;SDS011;2764;48.794;8.326;2023-01-08T02:00:26;6.97;;;3.92;;
5483;SDS011;2764;48.794;8.326;2023-01-08T02:01:29;4.65;;;3.35;;
5483;SDS011;2764;48.794;8.326;2023-01-08T02:02:32;5.30;;;2.90;;
5483;SDS011;2764;48.794;8.326;2023-01-08T02:03:36;2.80;;;2.60;;
5483;SDS011;2764;48.794;8.326;2023-01-08T02:04:39;3.72;;;3.10;;
5483;SDS011;2764;48.794;8.326;2023-01-08T02:07:12;4.75;;;4.05;;
5483;SDS011;2764;48.794;8.326;2023-01-08T02:08:31;4.20;;;3.90;;
5483;SDS011;2764;48.794;8.326;2023-01-08T02:12:22;4.68;;;3.70;;
5483;SDS011;2764;48.794;8.326;2023-01-08T02:13:34;4.10;;;3.50;;
5483;SDS011;2764;48.794;8.326;2023-01-08T02:14:44;4.60;;;3.55;;
5483;SDS011;2764;48.794;8.326;2023-01-08T02:17:15;3.25;;;3.03;;
5483;SDS011;2764;48.794;8.326;2023-01-08T02:18:34;6.28;;;3.97;;
5483;SDS011;2764;48.794;8.326;2023-01-08T02:19:51;5.03;;;3.45;;
5483;SDS011;2764;48.794;8.326;2023-01-08T02:21:02;8.23;;;4.47;;
5483;SDS011;2764;48.794;8.326;2023-01-08T02:25:06;6.07;;;5.25;;
5483;SDS011;2764;48.794;8.326;2023-01-08T02:26:18;4.45;;;3.58;;
5483;SDS011;2764;48.794;8.326;2023-01-08T02:27:28;3.80;;;3.40;;
5483;SDS011;2764;48.794;8.326;2023-01-08T02:28:33;5.65;;;4.43;;
5483;SDS011;2764;48.794;8.326;2023-01-08T02:29:40;5.40;;;3.92;;
5483;SDS011;2764;48.794;8.326;2023-01-08T02:30:43;9.23;;;4.35;;
5483;SDS011;2764;48.794;8.326;2023-01-08T02:31:45;4.15;;;3.75;;
5483;SDS011;2764;48.794;8.326;2023-01-08T02:32:47;5.20;;;4.20;;
5483;SDS011;2764;48.794;8.326;2023-01-08T02:33:48;3.40;;;3.10;;
5483;SDS011;2764;48.794;8.326;2023-01-08T02:34:50;4.13;;;3.72;;
5483;SDS011;2764;48.794;8.326;2023-01-08T02:35:53;5.13;;;4.18;;
5483;SDS011;2764;48.794;8.326;2023-01-08T02:37:14;6.30;;;4.40;;
5483;SDS011;2764;48.794;8.326;2023-01-08T02:38:18;5.75;;;4.25;;
5483;SDS011;2764;48.794;8.326;2023-01-08T02:40:51;5.15;;;3.67;;
5483;SDS011;2764;48.794;8.326;2023-01-08T02:45:52;5.82;;;3.67;;
5483;SDS011;2764;48.794;8.326;2023-01-08T02:46:59;16.30;;;9.35;;
5483;SDS011;2764;48.794;8.326;2023-01-08T02:48:13;12.55;;;10.00;;
5483;SDS011;2764;48.794;8.326;2023-01-08T02:49:23;5.57;;;5.13;;
5483;SDS011;2764;48.794;8.326;2023-01-08T02:50:32;5.45;;;3.92;;
5483;SDS011;2764;48.794;8.326;2023-01-08T02:51:40;5.30;;;4.03;;
5483;SDS011;2764;48.794;8.326;2023-01-08T02:52:49;3.67;;;3.05;;
5483;SDS011;2764;48.794;8.326;2023-01-08T02:53:58;3.45;;;3.25;;
5483;SDS011;2764;48.794;8.326;2023-01-08T02:55:03;6.22;;;4.20;;
5483;SDS011;2764;48.794;8.326;2023-01-08T02:56:07;5.40;;;3.85;;
5483;SDS011;2764;48.794;8.326;2023-01-08T02:57:12;3.35;;;3.13;;
5483;SDS011;2764;48.794;8.326;2023-01-08T02:58:17;3.63;;;2.35;;
5483;SDS011;2764;48.794;8.326;2023-01-08T02:59:21;4.10;;;3.25;;
5483;SDS011;2764;48.794;8.326;2023-01-08T03:00:24;3.60;;;3.40;;
5483;SDS011;2764;48.794;8.326;2023-01-08T03:01:27;4.25;;;3.85;;
5483;SDS011;2764;48.794;8.326;2023-01-08T03:02:30;5.20;;;3.92;;
5483;SDS011;2764;48.794;8.326;2023-01-08T03:03:36;9.32;;;3.78;;
5483;SDS011;2764;48.794;8.326;2023-01-08T03:05:04;3.35;;;3.05;;
5483;SDS011;2764;48.794;8.326;2023-01-08T03:06:08;3.60;;;3.30;;
5483;SDS011;2764;48.794;8.326;2023-01-08T03:07:13;5.05;;;3.20;;
5483;SDS011;2764;48.794;8.326;2023-01-08T03:08:15;4.57;;;3.50;;
5483;SDS011;2764;48.794;8.326;2023-01-08T03:09:19;3.17;;;2.97;;
5483;SDS011;2764;48.794;8.326;2023-01-08T03:10:21;3.70;;;3.38;;
5483;SDS011;2764;48.794;8.326;2023-01-08T03:11:28;4.70;;;3.53;;
5483;SDS011;2764;48.794;8.326;2023-01-08T03:12:44;3.75;;;3.45;;
5483;SDS011;2764;48.794;8.326;2023-01-08T03:13:59;6.05;;;3.83;;
5483;SDS011;2764;48.794;8.326;2023-01-08T03:15:18;6.00;;;4.55;;
5483;SDS011;2764;48.794;8.326;2023-01-08T03:16:28;6.10;;;3.72;;
5483;SDS011;2764;48.794;8.326;2023-01-08T03:17:37;5.13;;;3.20;;
5483;SDS011;2764;48.794;8.326;2023-01-08T03:18:48;4.13;;;3.55;;
5483;SDS011;2764;48.794;8.326;2023-01-08T03:19:53;11.68;;;4.13;;
5483;SDS011;2764;48.794;8.326;2023-01-08T03:20:58;4.10;;;3.70;;
5483;SDS011;2764;48.794;8.326;2023-01-08T03:22:04;3.83;;;3.40;;
5483;SDS011;2764;48.794;8.326;2023-01-08T03:23:09;5.82;;;4.25;;
5483;SDS011;2764;48.794;8.326;2023-01-08T03:24:14;5.18;;;3.50;;
5483;SDS011;2764;48.794;8.326;2023-01-08T03:25:21;5.63;;;3.30;;
5483;SDS011;2764;48.794;8.326;2023-01-08T03:26:25;3.25;;;3.05;;
5483;SDS011;2764;48.794;8.326;2023-01-08T03:27:28;3.80;;;3.50;;
5483;SDS011;2764;48.794;8.326;2023-01-08T03:28:36;3.78;;;3.40;;
5483;SDS011;2764;48.794;8.326;2023-01-08T03:29:42;3.80;;;3.40;;
5483;SDS011;2764;48.794;8.326;2023-01-08T03:30:47;3.55;;;3.28;;
5483;SDS011;2764;48.794;8.326;2023-01-08T03:31:53;3.13;;;2.92;;
5483;SDS011;2764;48.794;8.326;2023-01-08T03:33:01;3.40;;;2.45;;
5483;SDS011;2764;48.794;8.326;2023-01-08T03:34:06;3.20;;;3.00;;
5483;SDS011;2764;48.794;8.326;2023-01-08T03:35:09;3.55;;;2.83;;
5483;SDS011;2764;48.794;8.326;2023-01-08T03:36:18;5.00;;;2.97;;
5483;SDS011;2764;48.794;8.326;2023-01-08T03:37:26;4.45;;;2.55;;
5483;SDS011;2764;48.794;8.326;2023-01-08T03:38:33;3.67;;;2.80;;
5483;SDS011;2764;48.794;8.326;2023-01-08T03:39:44;6.57;;;3.08;;
5483;SDS011;2764;48.794;8.326;2023-01-08T03:40:53;3.00;;;2.80;;
5483;SDS011;2764;48.794;8.326;2023-01-08T03:42:01;4.00;;;3.15;;
5483;SDS011;2764;48.794;8.326;2023-01-08T03:43:06;2.70;;;2.50;;
5483;SDS011;2764;48.794;8.326;2023-01-08T03:44:08;3.05;;;2.85;;
5483;SDS011;2764;48.794;8.326;2023-01-08T03:45:10;5.80;;;2.90;;
5483;SDS011;2764;48.794;8.326;2023-01-08T03:46:21;4.82;;;2.72;;
5483;SDS011;2764;48.794;8.326;2023-01-08T03:47:29;3.25;;;3.05;;
5483;SDS011;2764;48.794;8.326;2023-01-08T03:48:33;2.47;;;2.28;;
5483;SDS011;2764;48.794;8.326;2023-01-08T03:49:37;6.03;;;2.70;;
5483;SDS011;2764;48.794;8.326;2023-01-08T03:50:40;5.63;;;2.88;;
5483;SDS011;2764;48.794;8.326;2023-01-08T03:51:42;4.70;;;2.80;;
5483;SDS011;2764;48.794;8.326;2023-01-08T03:52:46;2.22;;;2.13;;
5483;SDS011;2764;48.794;8.326;2023-01-08T03:53:48;3.88;;;2.47;;
5483;SDS011;2764;48.794;8.326;2023-01-08T03:54:52;4.15;;;3.20;;
5483;SDS011;2764;48.794;8.326;2023-01-08T03:55:54;4.22;;;3.15;;
5483;SDS011;2764;48.794;8.326;2023-01-08T03:56:57;4.57;;;2.90;;
5483;SDS011;2764;48.794;8.326;2023-01-08T03:57:59;7.03;;;3.13;;
5483;SDS011;2764;48.794;8.326;2023-01-08T03:59:01;3.28;;;2.33;;
5483;SDS011;2764;48.794;8.326;2023-01-08T04:00:03;2.63;;;2.35;;
5483;SDS011;2764;48.794;8.326;2023-01-08T04:01:05;3.55;;;2.33;;
5483;SDS011;2764;48.794;8.326;2023-01-08T04:02:07;2.97;;;2.50;;
5483;SDS011;2764;48.794;8.326;2023-01-08T04:03:09;3.00;;;2.67;;
5483;SDS011;2764;48.794;8.326;2023-01-08T04:04:10;2.60;;;2.40;;
5483;SDS011;2764;48.794;8.326;2023-01-08T04:05:12;3.13;;;2.30;;
5483;SDS011;2764;48.794;8.326;2023-01-08T04:06:14;2.92;;;2.55;;
5483;SDS011;2764;48.794;8.326;2023-01-08T04:07:16;4.15;;;2.67;;
5483;SDS011;2764;48.794;8.326;2023-01-08T04:08:17;5.32;;;2.88;;
5483;SDS011;2764;48.794;8.326;2023-01-08T04:09:19;2.20;;;2.10;;
5483;SDS011;2764;48.794;8.326;2023-01-08T04:10:21;3.40;;;2.45;;
5483;SDS011;2764;48.794;8.326;2023-01-08T04:11:23;3.05;;;2.85;;
5483;SDS011;2764;48.794;8.326;2023-01-08T04:12:25;4.30;;;2.83;;
5483;SDS011;2764;48.794;8.326;2023-01-08T04:13:27;5.60;;;2.35;;
5483;SDS011;2764;48.794;8.326;2023-01-08T04:14:28;2.70;;;2.50;;
5483;SDS011;2764;48.794;8.326;2023-01-08T04:15:30;2.70;;;2.50;;
5483;SDS011;2764;48.794;8.326;2023-01-08T04:16:33;4.05;;;2.80;;
5483;SDS011;2764;48.794;8.326;2023-01-08T04:17:35;3.25;;;2.50;;
5483;SDS011;2764;48.794;8.326;2023-01-08T04:18:37;9.63;;;3.22;;
5483;SDS011;2764;48.794;8.326;2023-01-08T04:19:38;5.85;;;3.10;;
5483;SDS011;2764;48.794;8.326;2023-01-08T04:20:43;3.13;;;2.75;;
5483;SDS011;2764;48.794;8.326;2023-01-08T04:21:48;2.78;;;2.58;;
5483;SDS011;2764;48.794;8.326;2023-01-08T04:22:51;2.60;;;2.45;;
5483;SDS011;2764;48.794;8.326;2023-01-08T04:23:53;3.58;;;2.65;;
5483;SDS011;2764;48.794;8.326;2023-01-08T04:24:55;3.15;;;2.80;;
5483;SDS011;2764;48.794;8.326;2023-01-08T04:25:57;2.95;;;2.75;;
5483;SDS011;2764;48.794;8.326;2023-01-08T04:26:59;3.53;;;2.67;;
5483;SDS011;2764;48.794;8.326;2023-01-08T04:28:00;2.53;;;2.42;;
5483;SDS011;2764;48.794;8.326;2023-01-08T04:29:02;4.97;;;2.72;;
5483;SDS011;2764;48.794;8.326;2023-01-08T04:30:04;3.50;;;3.20;;
5483;SDS011;2764;48.794;8.326;2023-01-08T04:31:06;3.17;;;2.50;;
5483;SDS011;2764;48.794;8.326;2023-01-08T04:32:09;3.00;;;2.42;;
5483;SDS011;2764;48.794;8.326;2023-01-08T04:33:11;2.33;;;2.13;;
5483;SDS011;2764;48.794;8.326;2023-01-08T04:34:13;4.30;;;2.28;;
5483;SDS011;2764;48.794;8.326;2023-01-08T04:35:15;4.18;;;2.60;;
5483;SDS011;2764;48.794;8.326;2023-01-08T04:36:16;7.53;;;2.05;;
5483;SDS011;2764;48.794;8.326;2023-01-08T04:37:18;4.35;;;2.33;;
5483;SDS011;2764;48.794;8.326;2023-01-08T04:38:20;3.38;;;2.72;;
5483;SDS011;2764;48.794;8.326;2023-01-08T04:39:21;2.58;;;2.40;;
5483;SDS011;2764;48.794;8.326;2023-01-08T04:40:23;2.95;;;2.75;;
5483;SDS011;2764;48.794;8.326;2023-01-08T04:41:25;2.80;;;2.60;;
5483;SDS011;2764;48.794;8.326;2023-01-08T04:42:26;2.42;;;2.33;;
5483;SDS011;2764;48.794;8.326;2023-01-08T04:43:28;2.92;;;2.72;;
5483;SDS011;2764;48.794;8.326;2023-01-08T04:44:31;2.97;;;2.40;;
5483;SDS011;2764;48.794;8.326;2023-01-08T04:45:33;2.53;;;2.33;;
5483;SDS011;2764;48.794;8.326;2023-01-08T04:46:34;4.43;;;2.60;;
5483;SDS011;2764;48.794;8.326;2023-01-08T04:47:36;4.85;;;2.40;;
5483;SDS011;2764;48.794;8.326;2023-01-08T04:48:38;1.95;;;1.88;;
5483;SDS011;2764;48.794;8.326;2023-01-08T04:49:40;5.57;;;2.97;;
5483;SDS011;2764;48.794;8.326;2023-01-08T04:50:42;3.72;;;2.60;;
5483;SDS011;2764;48.794;8.326;2023-01-08T04:51:44;8.30;;;2.85;;
5483;SDS011;2764;48.794;8.326;2023-01-08T04:52:46;3.45;;;2.92;;
5483;SDS011;2764;48.794;8.326;2023-01-08T04:53:47;2.80;;;2.60;;
5483;SDS011;2764;48.794;8.326;2023-01-08T04:54:49;4.75;;;3.22;;
5483;SDS011;2764;48.794;8.326;2023-01-08T04:55:51;3.00;;;2.90;;
5483;SDS011;2764;48.794;8.326;2023-01-08T04:56:53;3.22;;;2.95;;
5483;SDS011;2764;48.794;8.326;2023-01-08T04:57:55;3.55;;;2.72;;
5483;SDS011;2764;48.794;8.326;2023-01-08T04:58:57;3.65;;;3.30;;
5483;SDS011;2764;48.794;8.326;2023-01-08T04:59:59;6.68;;;2.95;;
5483;SDS011;2764;48.794;8.326;2023-01-08T05:01:07;3.92;;;3.58;;
5483;SDS011;2764;48.794;8.326;2023-01-08T05:02:13;7.05;;;3.10;;
5483;SDS011;2764;48.794;8.326;2023-01-08T05:03:15;4.35;;;3.15;;
5483;SDS011;2764;48.794;8.326;2023-01-08T05:04:17;8.23;;;3.20;;
5483;SDS011;2764;48.794;8.326;2023-01-08T05:05:19;4.97;;;4.43;;
5483;SDS011;2764;48.794;8.326;2023-01-08T05:06:20;3.88;;;3.67;;
5483;SDS011;2764;48.794;8.326;2023-01-08T05:07:22;6.20;;;4.40;;
5483;SDS011;2764;48.794;8.326;2023-01-08T05:08:24;8.30;;;3.80;;
5483;SDS011;2764;48.794;8.326;2023-01-08T05:09:26;7.28;;;3.10;;
5483;SDS011;2764;48.794;8.326;2023-01-08T05:10:27;3.30;;;3.00;;
5483;SDS011;2764;48.794;8.326;2023-01-08T05:11:29;5.88;;;3.42;;
5483;SDS011;2764;48.794;8.326;2023-01-08T05:12:31;4.43;;;4.10;;
5483;SDS011;2764;48.794;8.326;2023-01-08T05:13:32;4.47;;;4.07;;
5483;SDS011;2764;48.794;8.326;2023-01-08T05:14:34;8.43;;;4.20;;
5483;SDS011;2764;48.794;8.326;2023-01-08T05:15:36;4.40;;;4.00;;
5483;SDS011;2764;48.794;8.326;2023-01-08T05:16:38;9.73;;;4.05;;
5483;SDS011;2764;48.794;8.326;2023-01-08T05:17:39;7.30;;;4.47;;
5483;SDS011;2764;48.794;8.326;2023-01-08T05:18:42;4.80;;;3.95;;
5483;SDS011;2764;48.794;8.326;2023-01-08T05:19:44;5.07;;;4.45;;
5483;SDS011;2764;48.794;8.326;2023-01-08T05:20:46;4.93;;;4.15;;
5483;SDS011;2764;48.794;8.326;2023-01-08T05:21:48;6.60;;;4.93;;
5483;SDS011;2764;48.794;8.326;2023-01-08T05:22:49;4.82;;;4.18;;
5483;SDS011;2764;48.794;8.326;2023-01-08T05:23:51;5.00;;;4.50;;
5483;SDS011;2764;48.794;8.326;2023-01-08T05:24:53;4.45;;;4.03;;
5483;SDS011;2764;48.794;8.326;2023-01-08T05:25:55;5.32;;;4.65;;
5483;SDS011;2764;48.794;8.326;2023-01-08T05:26:59;7.13;;;4.70;;
5483;SDS011;2764;48.794;8.326;2023-01-08T05:28:00;4.53;;;4.10;;
5483;SDS011;2764;48.794;8.326;2023-01-08T05:29:02;5.18;;;4.75;;
5483;SDS011;2764;48.794;8.326;2023-01-08T05:30:04;9.25;;;5.47;;
5483;SDS011;2764;48.794;8.326;2023-01-08T05:31:06;7.82;;;4.82;;
5483;SDS011;2764;48.794;8.326;2023-01-08T05:32:17;5.07;;;4.50;;
5483;SDS011;2764;48.794;8.326;2023-01-08T05:33:19;4.68;;;4.38;;
5483;SDS011;2764;48.794;8.326;2023-01-08T05:34:21;4.88;;;4.47;;
5483;SDS011;2764;48.794;8.326;2023-01-08T05:35:23;5.10;;;4.70;;
5483;SDS011;2764;48.794;8.326;2023-01-08T05:36:25;4.60;;;4.30;;
5483;SDS011;2764;48.794;8.326;2023-01-08T05:37:26;8.85;;;4.90;;
5483;SDS011;2764;48.794;8.326;2023-01-08T05:38:28;5.10;;;4.60;;
5483;SDS011;2764;48.794;8.326;2023-01-08T05:39:30;6.80;;;4.50;;
5483;SDS011;2764;48.794;8.326;2023-01-08T05:40:31;12.95;;;4.70;;
5483;SDS011;2764;48.794;8.326;2023-01-08T05:41:33;9.05;;;4.18;;
5483;SDS011;2764;48.794;8.326;2023-01-08T05:42:35;4.95;;;4.45;;
5483;SDS011;2764;48.794;8.326;2023-01-08T05:43:37;8.20;;;4.60;;
5483;SDS011;2764;48.794;8.326;2023-01-08T05:44:39;6.57;;;4.35;;
5483;SDS011;2764;48.794;8.326;2023-01-08T05:45:40;8.88;;;4.50;;
5483;SDS011;2764;48.794;8.326;2023-01-08T05:46:42;4.70;;;4.30;;
5483;SDS011;2764;48.794;8.326;2023-01-08T05:47:44;6.43;;;5.22;;
5483;SDS011;2764;48.794;8.326;2023-01-08T05:48:46;4.60;;;4.25;;
5483;SDS011;2764;48.794;8.326;2023-01-08T05:49:47;5.18;;;4.68;;
5483;SDS011;2764;48.794;8.326;2023-01-08T05:50:49;5.45;;;5.05;;
5483;SDS011;2764;48.794;8.326;2023-01-08T05:51:51;5.80;;;5.28;;
5483;SDS011;2764;48.794;8.326;2023-01-08T05:52:52;5.80;;;4.85;;
5483;SDS011;2764;48.794;8.326;2023-01-08T05:53:54;4.93;;;4.60;;
5483;SDS011;2764;48.794;8.326;2023-01-08T05:54:56;8.15;;;4.60;;
5483;SDS011;2764;48.794;8.326;2023-01-08T05:56:04;9.07;;;5.80;;
5483;SDS011;2764;48.794;8.326;2023-01-08T05:57:09;6.28;;;5.28;;
5483;SDS011;2764;48.794;8.326;2023-01-08T05:58:11;4.97;;;4.47;;
5483;SDS011;2764;48.794;8.326;2023-01-08T05:59:13;4.65;;;4.30;;
5483;SDS011;2764;48.794;8.326;2023-01-08T06:00:15;5.97;;;4.97;;
5483;SDS011;2764;48.794;8.326;2023-01-08T06:01:17;4.25;;;3.95;;
5483;SDS011;2764;48.794;8.326;2023-01-08T06:02:19;6.88;;;3.85;;
5483;SDS011;2764;48.794;8.326;2023-01-08T06:03:21;4.65;;;3.83;;
5483;SDS011;2764;48.794;8.326;2023-01-08T06:04:23;4.38;;;4.07;;
5483;SDS011;2764;48.794;8.326;2023-01-08T06:05:25;6.38;;;4.70;;
5483;SDS011;2764;48.794;8.326;2023-01-08T06:06:27;4.90;;;4.40;;
5483;SDS011;2764;48.794;8.326;2023-01-08T06:07:28;4.70;;;4.40;;
5483;SDS011;2764;48.794;8.326;2023-01-08T06:08:30;4.50;;;4.00;;
5483;SDS011;2764;48.794;8.326;2023-01-08T06:09:32;4.05;;;3.75;;
5483;SDS011;2764;48.794;8.326;2023-01-08T06:10:36;4.50;;;4.30;;
5483;SDS011;2764;48.794;8.326;2023-01-08T06:11:38;8.27;;;4.10;;
5483;SDS011;2764;48.794;8.326;2023-01-08T06:12:40;4.13;;;3.83;;
5483;SDS011;2764;48.794;8.326;2023-01-08T06:13:42;4.28;;;3.92;;
5483;SDS011;2764;48.794;8.326;2023-01-08T06:14:44;7.22;;;4.00;;
5483;SDS011;2764;48.794;8.326;2023-01-08T06:15:46;4.20;;;3.90;;
5483;SDS011;2764;48.794;8.326;2023-01-08T06:16:47;4.82;;;4.45;;
5483;SDS011;2764;48.794;8.326;2023-01-08T06:17:49;5.40;;;4.45;;
5483;SDS011;2764;48.794;8.326;2023-01-08T06:18:51;4.47;;;3.92;;
5483;SDS011;2764;48.794;8.326;2023-01-08T06:19:52;6.45;;;5.95;;
5483;SDS011;2764;48.794;8.326;2023-01-08T06:20:54;6.85;;;5.88;;
5483;SDS011;2764;48.794;8.326;2023-01-08T06:21:56;6.70;;;5.90;;
5483;SDS011;2764;48.794;8.326;2023-01-08T06:22:58;9.02;;;5.88;;
5483;SDS011;2764;48.794;8.326;2023-01-08T06:24:00;5.07;;;4.57;;
5483;SDS011;2764;48.794;8.326;2023-01-08T06:25:02;5.10;;;4.10;;
5483;SDS011;2764;48.794;8.326;2023-01-08T06:26:04;2.45;;;2.35;;
5483;SDS011;2764;48.794;8.326;2023-01-08T06:27:06;4.93;;;4.63;;
5483;SDS011;2764;48.794;8.326;2023-01-08T06:28:08;4.85;;;4.45;;
5483;SDS011;2764;48.794;8.326;2023-01-08T06:29:10;3.33;;;2.90;;
5483;SDS011;2764;48.794;8.326;2023-01-08T06:30:11;2.65;;;2.45;;
5483;SDS011;2764;48.794;8.326;2023-01-08T06:31:13;5.22;;;4.82;;
5483;SDS011;2764;48.794;8.326;2023-01-08T06:32:15;6.38;;;4.60;;
5483;SDS011;2764;48.794;8.326;2023-01-08T06:33:17;4.50;;;4.20;;
5483;SDS011;2764;48.794;8.326;2023-01-08T06:34:21;4.07;;;3.70;;
5483;SDS011;2764;48.794;8.326;2023-01-08T06:35:23;2.60;;;2.50;;
5483;SDS011;2764;48.794;8.326;2023-01-08T06:36:25;3.75;;;2.78;;
5483;SDS011;2764;48.794;8.326;2023-01-08T06:37:27;3.03;;;2.92;;
5483;SDS011;2764;48.794;8.326;2023-01-08T06:38:30;2.30;;;2.20;;
5483;SDS011;2764;48.794;8.326;2023-01-08T06:39:33;3.45;;;2.10;;
5483;SDS011;2764;48.794;8.326;2023-01-08T06:40:34;4.40;;;3.00;;
5483;SDS011;2764;48.794;8.326;2023-01-08T06:41:36;3.10;;;2.60;;
5483;SDS011;2764;48.794;8.326;2023-01-08T06:42:38;2.60;;;2.40;;
5483;SDS011;2764;48.794;8.326;2023-01-08T06:43:39;2.60;;;2.40;;
5483;SDS011;2764;48.794;8.326;2023-01-08T06:44:41;2.28;;;2.17;;
5483;SDS011;2764;48.794;8.326;2023-01-08T06:45:43;3.17;;;2.90;;
5483;SDS011;2764;48.794;8.326;2023-01-08T06:46:44;3.63;;;3.25;;
5483;SDS011;2764;48.794;8.326;2023-01-08T06:47:46;2.97;;;2.60;;
5483;SDS011;2764;48.794;8.326;2023-01-08T06:48:48;3.05;;;2.85;;